• Join FlightAware (Why Join?)
  • Login
  • US Flag 
08:52AM EST


 

Airport Tracker/Info


-or-


 

Live Flight TrackerFlight Track Log ✈ PDT4373 ✈ 16-Oct-2013 ✈ KPHL - KBGM

Flight Track Log - Related Links

Times and Time Zones

All times are in EDT time to prevent confusion due to time zone crossing. See the PDT4373 flight status page for this flight to view local times or setup timezone preferences in your user account.

Time Position Orientation Groundspeed Altitude Reporting Facility
EDT Latitude Longitude Course Direction KTS MPH feet Rate Location/Type
10:59AM 39.8833 -75.2167 311° West 137 158 700  Level Philadelphia TRACON
10:59AM 39.8833 -75.2000 90° East 123 142 1,300 1,140 Climbing Philadelphia TRACON
11:00AM 39.9167 -75.1667 37° Northeast 155 178 2,200 1,200 Climbing Philadelphia TRACON
11:01AM 40.0975 -75.3098 311° West  Level Estimated
11:01AM 39.9667 -75.1667 360° North 158 182 3,700  Level Philadelphia TRACON
11:02AM 40.1725 -75.3328 311° West  Level Estimated
11:02AM 40.0000 -75.1833 339° North 163 188 4,800  Level Philadelphia TRACON
11:03AM 40.2079 -75.4225 297° West  Level FlightAware Approximate
11:03AM 40.0500 -75.2000 346° North 162 186 6,400  Level Philadelphia TRACON
11:04AM 40.2834 -75.4429 311° West  Level Estimated
11:04AM 40.0833 -75.2167 339° North 170 196 7,600  Level Philadelphia TRACON
11:05AM 40.1333 -75.2500 333° Northwest 176 203 8,700 1,140 Climbing Philadelphia TRACON
11:06AM 40.1358 -75.2778 277° West 175 201 9,400 1,080 Climbing New York Center
11:07AM 40.1497 -75.3467 285° West 175 201 10,400 1,140 Climbing New York Center
11:08AM 40.1708 -75.3942 300° West 175 201 11,700 720 Climbing New York Center
11:09AM 40.1892 -75.4608 290° West 196 226 11,900 120 Climbing New York Center
11:10AM 40.2133 -75.5331 294° West 211 243 12,000  Climbing New York Center
11:11AM 40.2478 -75.6061 302° West 226 260 12,000  Level New York Center
11:12AM 40.2933 -75.6692 313° West 232 267 12,000  Level New York Center
11:13AM 40.3303 -75.7317 308° West 243 280 12,000  Level New York Center
11:14AM 40.3775 -75.7950 314° West 243 280 12,000  Level New York Center
11:15AM 40.4242 -75.8719 309° West 243 280 12,000  Level New York Center
11:16AM 40.4714 -75.9383 313° West 243 280 12,000  Level New York Center
11:17AM 40.5167 -76.0017 313° West 243 280 12,000  Level New York Center
11:18AM 40.5797 -76.0339 339° North 243 280 12,000 -60 Level New York Center
11:19AM 40.6436 -76.0525 348° North 250 288 11,900 -60 Descending New York Center
11:20AM 40.7239 -76.0722 349° North 257 296 11,900  Level New York Center
11:21AM 40.7939 -76.0886 350° North 257 296 12,000  Climbing New York Center
11:22AM 40.8658 -76.1108 347° North 257 296 12,000  Level New York Center
11:23AM 40.9275 -76.1294 347° North 257 296 12,000  Level New York Center
11:24AM 40.9978 -76.1431 352° North 257 296 12,000 -420 Level New York Center
11:25AM 41.0697 -76.1625 348° North 257 296 11,200 -960 Descending New York Center
11:26AM 41.1522 -76.1856 348° North 269 310 10,100 -900 Descending New York Center
11:27AM 41.2142 -76.1989 351° North 241 277 9,400 -600 Descending New York Center
11:28AM 41.2742 -76.2064 355° North 218 251 9,000 -240 Descending New York Center
11:29AM 41.3328 -76.2003 North 225 259 9,000  Level New York Center
11:30AM 41.3933 -76.1967 North 230 265 9,000 -300 Level New York Center
11:31AM 41.4581 -76.1908 North 215 247 8,400 -1,020 Descending New York Center
11:32AM 41.5186 -76.1875 North 215 247 7,000 -720 Descending New York Center
11:33AM 41.5772 -76.1839 North 215 247 7,000  Level New York Center
11:34AM 41.6356 -76.1803 North 220 253 7,000 -720 Level New York Center
11:36AM 41.7717 -76.1664 North 230 265 5,000 -720 Descending New York Center
11:37AM 41.8300 -76.1656 North 220 253 5,000  Level New York Center
11:38AM 41.8928 -76.1594 North 220 253 5,000  Level New York Center
11:39AM 41.9503 -76.1278 22° Northeast 227 261 5,000  Level New York Center
11:40AM 42.0142 -76.0967 20° North 237 273 5,000  Level New York Center
11:41AM 42.0844 -76.0606 21° North 237 273 5,000 960 Level New York Center
11:42AM 42.1444 -76.0233 25° Northeast 237 273 7,000 -1,080 Climbing New York Center
11:43AM 42.1950 -76.0106 11° North 220 253 2,900 -2,400 Descending New York Center
11:44AM 42.2300 -76.0189 350° North 166 191 2,300 -360 Descending New York Center
11:45AM 42.2717 -76.0167 North 157 181 2,200 -120 Descending New York Center